Time;durP1;ratioP1;P1;durP2;ratioP2;P2;SDS_P1;SDS_P2;PMS_P1;PMS_P2;Temp;Humidity;BMP_temperature;BMP_pressure;BME280_temperature;BME280_humidity;BME280_pressure;Samples;Min_cycle;Max_cycle;Signal;HPM_P1;HPM_P2
2021/08/06 00:01:34;;;;;;;7.13;5.63;;;17.00;99.90;;;;;;4998069;28;20468;-60
2021/08/06 00:04:03;;;;;;;5.37;4.87;;;17.00;99.90;;;;;;4988899;28;20508;-60
2021/08/06 00:06:31;;;;;;;4.97;4.43;;;17.00;99.90;;;;;;4995456;28;20521;-61
2021/08/06 00:08:59;;;;;;;4.30;4.00;;;17.00;99.90;;;;;;4998279;28;20547;-60
2021/08/06 00:11:29;;;;;;;5.03;4.50;;;17.00;99.90;;;;;;4997585;28;20469;-60
2021/08/06 00:13:56;;;;;;;5.37;4.90;;;17.00;99.90;;;;;;4997492;28;20461;-60
2021/08/06 00:16:23;;;;;;;5.03;4.63;;;17.00;99.90;;;;;;4997467;28;20468;-60
2021/08/06 00:18:50;;;;;;;5.40;5.00;;;17.10;99.90;;;;;;4998138;28;20757;-60
2021/08/06 00:21:19;;;;;;;5.47;5.07;;;17.10;99.90;;;;;;4998056;28;20454;-60
2021/08/06 00:23:47;;;;;;;5.37;4.70;;;17.10;99.90;;;;;;4997651;28;20465;-60
2021/08/06 00:26:15;;;;;;;5.60;4.93;;;17.10;99.90;;;;;;4997226;28;20464;-60
2021/08/06 00:28:42;;;;;;;5.73;4.50;;;17.10;99.90;;;;;;4998068;28;20485;-59
2021/08/06 00:31:09;;;;;;;7.00;4.93;;;17.10;99.90;;;;;;4997192;28;20469;-60
2021/08/06 00:33:37;;;;;;;8.93;4.60;;;17.10;99.90;;;;;;4997103;28;20472;-60
2021/08/06 00:36:04;;;;;;;5.63;4.60;;;17.10;99.90;;;;;;4997392;28;20461;-60
2021/08/06 00:38:32;;;;;;;4.93;4.53;;;17.10;99.90;;;;;;4998049;28;20485;-60
2021/08/06 00:40:59;;;;;;;6.00;5.00;;;17.10;99.90;;;;;;4997316;28;20473;-60
2021/08/06 00:43:26;;;;;;;4.57;4.20;;;17.10;99.90;;;;;;4997688;28;20468;-60
2021/08/06 00:45:56;;;;;;;5.63;5.13;;;17.10;99.90;;;;;;4997381;28;20473;-60
2021/08/06 00:48:23;;;;;;;5.07;4.60;;;17.20;99.90;;;;;;4997991;28;20464;-60
2021/08/06 00:50:50;;;;;;;4.50;4.20;;;17.10;99.90;;;;;;4997360;28;20802;-60
2021/08/06 00:53:20;;;;;;;5.40;4.90;;;17.10;99.90;;;;;;4997698;28;20869;-60
2021/08/06 00:55:49;;;;;;;5.40;4.90;;;17.10;99.90;;;;;;4997443;28;20468;-60
2021/08/06 00:58:18;;;;;;;5.33;4.93;;;17.10;99.90;;;;;;4997629;28;20493;-60
2021/08/06 01:00:49;;;;;;;5.03;4.63;;;17.10;99.90;;;;;;4996895;28;20531;-60
2021/08/06 01:03:23;;;;;;;6.13;4.93;;;17.10;99.90;;;;;;4997797;28;20507;-60
2021/08/06 01:05:58;;;;;;;4.73;4.33;;;17.20;99.90;;;;;;4991099;28;20477;-60
2021/08/06 01:08:35;;;;;;;4.90;4.50;;;17.20;99.90;;;;;;4990880;28;20447;-60
2021/08/06 01:11:05;;;;;;;5.17;4.73;;;17.20;99.90;;;;;;4982067;28;20889;-60
2021/08/06 01:13:38;;;;;;;4.90;4.50;;;17.20;99.90;;;;;;4980895;28;20524;-60
2021/08/06 01:16:09;;;;;;;4.63;4.23;;;17.20;99.90;;;;;;4989975;28;20457;-60
2021/08/06 01:18:41;;;;;;;6.53;4.83;;;17.20;99.90;;;;;;5000850;28;20917;-59
2021/08/06 01:21:17;;;;;;;5.23;4.73;;;17.20;99.90;;;;;;5000734;28;20968;-60
2021/08/06 01:23:44;;;;;;;5.37;4.90;;;17.20;99.90;;;;;;4998684;28;20519;-60
2021/08/06 01:26:15;;;;;;;5.03;4.63;;;17.20;99.90;;;;;;4980648;28;20524;-60
2021/08/06 01:28:45;;;;;;;5.80;5.23;;;17.10;99.90;;;;;;4980808;28;20552;-60
2021/08/06 01:31:14;;;;;;;4.37;3.97;;;17.20;99.90;;;;;;4980791;28;20862;-60
2021/08/06 01:33:41;;;;;;;5.47;4.97;;;17.10;99.90;;;;;;4981007;28;20466;-59
2021/08/06 01:36:08;;;;;;;5.57;4.87;;;17.10;99.90;;;;;;4981002;28;20466;-60
2021/08/06 01:38:35;;;;;;;4.80;4.50;;;17.10;99.90;;;;;;4981312;28;20564;-60
2021/08/06 01:41:16;;;;;;;4.83;4.33;;;17.10;99.90;;;;;;4985151;28;20508;-60
2021/08/06 01:43:51;;;;;;;5.37;4.90;;;17.00;99.90;;;;;;5000429;28;20464;-58
2021/08/06 01:46:25;;;;;;;4.70;4.30;;;17.00;99.90;;;;;;5000485;28;20916;-60
2021/08/06 01:48:59;;;;;;;6.17;5.27;;;17.00;99.90;;;;;;4999911;28;20797;-60
2021/08/06 01:51:27;;;;;;;5.20;4.80;;;17.00;99.90;;;;;;4999739;28;20469;-55
2021/08/06 01:53:56;;;;;;;5.90;5.07;;;17.00;99.90;;;;;;5000103;28;20834;-58
2021/08/06 01:56:25;;;;;;;5.10;4.70;;;17.00;99.90;;;;;;5000119;28;20516;-60
2021/08/06 01:58:55;;;;;;;5.03;4.63;;;17.00;99.90;;;;;;5000068;28;20493;-60
2021/08/06 02:01:23;;;;;;;5.20;4.70;;;16.90;99.90;;;;;;4999460;28;20465;-60
2021/08/06 02:03:50;;;;;;;6.07;5.00;;;16.90;99.90;;;;;;4989294;28;20443;-60
2021/08/06 02:06:18;;;;;;;4.80;4.30;;;16.90;99.90;;;;;;4991766;28;20881;-59
2021/08/06 02:08:46;;;;;;;5.30;4.50;;;16.90;99.90;;;;;;4985112;28;20536;-59
2021/08/06 02:11:17;;;;;;;5.37;4.13;;;16.90;99.90;;;;;;4999655;28;20554;-60
2021/08/06 02:13:45;;;;;;;4.70;4.30;;;16.80;99.90;;;;;;4989000;28;20942;-61
2021/08/06 02:16:12;;;;;;;5.97;5.33;;;16.80;99.90;;;;;;4980669;28;20516;-60
2021/08/06 02:18:40;;;;;;;5.30;4.80;;;16.80;99.90;;;;;;4980360;28;20988;-60
2021/08/06 02:21:11;;;;;;;4.90;4.40;;;16.70;99.90;;;;;;4982035;28;20466;-60
2021/08/06 02:23:43;;;;;;;4.97;4.57;;;16.70;99.90;;;;;;4999193;28;20464;-60
2021/08/06 02:26:12;;;;;;;4.80;4.40;;;16.60;99.90;;;;;;4999458;28;20472;-60
2021/08/06 02:28:41;;;;;;;5.13;4.60;;;16.50;99.90;;;;;;4999042;28;20489;-60
2021/08/06 02:31:09;;;;;;;5.17;4.67;;;16.50;99.90;;;;;;4998738;28;20606;-60
2021/08/06 02:33:37;;;;;;;6.13;4.40;;;16.50;99.90;;;;;;4999003;28;20472;-60
2021/08/06 02:36:05;;;;;;;4.97;4.57;;;16.50;99.90;;;;;;4999180;28;20465;-61
2021/08/06 02:38:34;;;;;;;5.07;4.13;;;16.40;99.90;;;;;;4995004;28;20536;-60
2021/08/06 02:41:02;;;;;;;4.80;4.40;;;16.40;99.90;;;;;;4979832;28;20493;-59
2021/08/06 02:43:30;;;;;;;5.07;4.67;;;16.40;99.90;;;;;;4996514;28;20551;-60
2021/08/06 02:45:57;;;;;;;5.00;4.60;;;16.40;99.90;;;;;;4998865;28;20469;-60
2021/08/06 02:48:27;;;;;;;5.27;4.77;;;16.40;99.90;;;;;;4998632;28;20468;-58
2021/08/06 02:50:54;;;;;;;6.53;5.93;;;16.30;99.90;;;;;;4998824;28;20534;-60
2021/08/06 02:53:21;;;;;;;4.60;4.03;;;16.40;99.90;;;;;;4999365;28;20465;-60
2021/08/06 02:55:47;;;;;;;5.17;4.77;;;16.40;99.90;;;;;;4999360;28;20581;-60
2021/08/06 02:58:15;;;;;;;5.80;5.30;;;16.40;99.90;;;;;;4998356;28;20523;-59
2021/08/06 03:00:42;;;;;;;5.63;5.13;;;16.50;99.90;;;;;;4998867;28;20466;-60
2021/08/06 03:03:09;;;;;;;4.90;4.27;;;16.50;99.90;;;;;;4991426;28;20477;-60
2021/08/06 03:05:38;;;;;;;5.07;4.57;;;16.50;99.90;;;;;;4995828;28;20515;-60
2021/08/06 03:08:05;;;;;;;5.00;4.60;;;16.50;99.90;;;;;;4997810;28;20527;-60
2021/08/06 03:10:35;;;;;;;6.10;5.30;;;16.50;99.90;;;;;;4998662;28;20456;-60
2021/08/06 03:13:01;;;;;;;5.43;4.30;;;16.40;99.90;;;;;;4998774;28;20453;-60
2021/08/06 03:15:29;;;;;;;5.30;4.80;;;16.40;99.90;;;;;;4998662;28;20461;-60
2021/08/06 03:17:56;;;;;;;5.03;4.53;;;16.40;99.90;;;;;;4998594;28;20464;-59
2021/08/06 03:20:25;;;;;;;7.77;5.50;;;16.40;99.90;;;;;;4998485;28;20496;-60
2021/08/06 03:22:53;;;;;;;5.60;4.87;;;16.50;99.90;;;;;;4998532;28;20823;-60
2021/08/06 03:25:21;;;;;;;5.40;4.90;;;16.50;99.90;;;;;;4998295;28;20443;-60
2021/08/06 03:27:48;;;;;;;5.53;5.07;;;16.50;99.90;;;;;;4997652;28;20516;-60
2021/08/06 04:09:39;;;;;;;6.77;5.13;;;16.20;99.90;;;;;;3785694;22;20488;-62
2021/08/06 04:46:20;;;;;;;5.70;5.10;;;16.00;99.90;;;;;;4076312;23;20965;-63
2021/08/06 04:48:47;;;;;;;5.50;5.10;;;16.00;99.90;;;;;;5021552;28;20460;-64
2021/08/06 04:51:14;;;;;;;5.70;5.20;;;16.00;99.90;;;;;;5021197;28;20459;-64
2021/08/06 04:53:41;;;;;;;5.43;4.93;;;16.00;99.90;;;;;;5019915;28;20448;-64
2021/08/06 04:56:09;;;;;;;6.43;5.83;;;16.00;99.90;;;;;;5020590;28;20463;-65
2021/08/06 04:58:36;;;;;;;6.10;5.50;;;16.00;99.90;;;;;;5020712;28;20442;-65
2021/08/06 05:01:06;;;;;;;5.17;4.67;;;16.00;99.90;;;;;;5020911;28;21011;-65
2021/08/06 05:03:35;;;;;;;6.13;5.37;;;16.10;99.90;;;;;;5012303;28;20479;-65
2021/08/06 05:06:02;;;;;;;6.00;5.40;;;16.00;99.90;;;;;;5017501;28;20563;-65
2021/08/06 05:08:38;;;;;;;5.53;5.00;;;16.00;99.90;;;;;;5020625;28;20452;-64
2021/08/06 05:11:05;;;;;;;4.97;4.47;;;16.10;99.90;;;;;;5020123;28;20888;-65
2021/08/06 05:13:32;;;;;;;5.60;5.10;;;16.10;99.90;;;;;;5020119;28;20467;-64
2021/08/06 05:15:59;;;;;;;7.40;5.23;;;16.10;99.90;;;;;;5020173;28;20522;-64
2021/08/06 05:18:26;;;;;;;6.03;5.53;;;16.20;99.90;;;;;;5019620;28;20456;-64
2021/08/06 05:58:56;;;;;;;5.40;4.90;;;16.40;99.90;;;;;;3413774;22;20501;-64
2021/08/06 06:01:24;;;;;;;5.10;4.27;;;16.40;99.90;;;;;;4997491;28;20456;-64
2021/08/06 06:03:51;;;;;;;5.13;4.63;;;16.40;99.90;;;;;;4986305;28;20536;-64
2021/08/06 06:06:18;;;;;;;5.37;4.87;;;16.40;99.90;;;;;;4994769;28;20461;-64
2021/08/06 06:08:45;;;;;;;5.20;4.70;;;16.40;99.90;;;;;;4997061;28;20469;-64
2021/08/06 06:11:12;;;;;;;5.60;4.40;;;16.40;99.90;;;;;;4998883;28;20469;-65
2021/08/06 06:13:39;;;;;;;4.83;3.93;;;16.40;99.90;;;;;;4988377;28;20906;-63
2021/08/06 06:16:07;;;;;;;4.63;4.20;;;16.40;99.90;;;;;;4980113;28;20516;-62
2021/08/06 06:18:34;;;;;;;4.27;3.87;;;16.40;99.90;;;;;;4979964;28;20470;-64
2021/08/06 06:21:02;;;;;;;4.10;3.80;;;16.40;99.90;;;;;;4979756;28;20505;-65
2021/08/06 07:00:23;;;;;;;4.20;3.90;;;16.90;99.90;;;;;;3126552;23;20940;-66
2021/08/06 07:02:51;;;;;;;4.63;3.87;;;16.90;99.90;;;;;;4994823;28;20435;-67
2021/08/06 07:05:25;;;;;;;4.60;3.73;;;17.00;99.90;;;;;;4991210;28;20465;-67
2021/08/06 07:44:46;;;;;;;3.60;2.87;;;17.80;99.90;;;;;;5180909;22;20500;-68
2021/08/06 07:47:17;;;;;;;3.37;3.07;;;18.00;99.90;;;;;;4999204;28;20580;-68
2021/08/06 07:49:44;;;;;;;4.13;3.00;;;18.30;99.90;;;;;;4997910;28;20457;-69
2021/08/06 07:52:13;;;;;;;4.40;2.70;;;18.30;99.90;;;;;;4998448;28;20465;-68
2021/08/06 07:54:40;;;;;;;3.00;2.70;;;18.20;99.90;;;;;;4997844;28;20461;-69
2021/08/06 07:57:08;;;;;;;3.50;3.20;;;18.30;99.90;;;;;;4997345;28;20514;-68
2021/08/06 07:59:38;;;;;;;3.80;3.07;;;18.30;99.90;;;;;;4997888;28;20501;-68
2021/08/06 08:02:07;;;;;;;3.47;3.17;;;18.40;99.90;;;;;;4998313;28;20523;-67
2021/08/06 08:04:35;;;;;;;3.20;2.90;;;18.30;99.90;;;;;;4987687;28;20893;-67
2021/08/06 08:07:02;;;;;;;3.20;3.00;;;18.40;99.90;;;;;;4997831;28;20453;-67
2021/08/06 08:09:32;;;;;;;2.50;2.30;;;18.50;99.90;;;;;;4998044;28;20460;-66
2021/08/06 08:11:59;;;;;;;3.07;2.77;;;18.50;99.90;;;;;;4998838;28;20457;-66
2021/08/06 08:14:27;;;;;;;3.90;3.50;;;18.40;99.90;;;;;;5001221;28;20515;-66
2021/08/06 08:16:54;;;;;;;3.50;3.30;;;18.50;99.90;;;;;;5002344;28;20905;-66
2021/08/06 08:19:25;;;;;;;4.13;3.27;;;18.50;99.90;;;;;;5001406;28;20551;-65
2021/08/06 08:21:53;;;;;;;3.67;3.23;;;18.50;99.90;;;;;;5001627;28;20509;-65
2021/08/06 08:24:19;;;;;;;3.30;3.00;;;18.50;99.90;;;;;;5001653;28;20443;-65
2021/08/06 08:26:49;;;;;;;3.80;3.30;;;18.50;99.90;;;;;;5001794;28;20465;-65
2021/08/06 08:29:16;;;;;;;3.33;2.90;;;18.60;99.90;;;;;;5001021;28;20468;-65
2021/08/06 08:31:43;;;;;;;3.47;3.17;;;18.60;99.90;;;;;;5001627;28;20956;-65
2021/08/06 08:34:10;;;;;;;5.40;3.27;;;18.70;99.90;;;;;;5001398;28;20468;-64
2021/08/06 08:36:40;;;;;;;7.27;3.37;;;18.60;99.90;;;;;;5001665;28;20871;-64
2021/08/06 08:42:30;;;;;;;3.43;3.10;;;18.70;99.90;;;;;;5001316;28;20734;-64
2021/08/06 08:45:01;;;;;;;2.93;2.70;;;19.80;99.90;;;;;;5001164;28;20515;-63
2021/08/06 08:47:30;;;;;;;4.17;3.60;;;20.40;99.90;;;;;;5001276;28;20468;-62
2021/08/06 08:49:58;;;;;;;3.67;3.37;;;21.00;99.90;;;;;;5000628;28;20812;-63
2021/08/06 08:52:26;;;;;;;5.43;3.20;;;21.20;99.90;;;;;;5001414;28;20759;-62
2021/08/06 08:54:54;;;;;;;3.90;3.47;;;21.60;99.90;;;;;;5001293;28;20886;-62
2021/08/06 08:57:23;;;;;;;2.87;2.67;;;22.10;99.90;;;;;;5000724;28;20894;-63
2021/08/06 08:59:52;;;;;;;3.03;2.83;;;21.90;99.90;;;;;;5001089;28;20504;-62
2021/08/06 10:13:42;;;;;;;4.83;3.50;;;20.70;99.90;;;;;;3894747;22;21011;-68
2021/08/06 10:16:09;;;;;;;4.40;4.00;;;20.50;99.90;;;;;;4995764;28;20469;-67
2021/08/06 10:18:36;;;;;;;3.67;3.37;;;20.40;99.90;;;;;;4993250;28;20772;-67
2021/08/06 10:21:04;;;;;;;6.37;4.00;;;20.60;99.90;;;;;;4999278;28;20507;-67
2021/08/06 10:23:40;;;;;;;4.83;4.30;;;20.60;99.90;;;;;;4997023;28;20480;-67
2021/08/06 10:26:07;;;;;;;4.77;4.27;;;20.80;99.90;;;;;;4999834;28;20465;-66
2021/08/06 10:28:35;;;;;;;4.47;3.90;;;21.40;99.90;;;;;;4998392;28;20469;-67
2021/08/06 10:31:19;;;;;;;4.13;3.73;;;21.70;99.90;;;;;;4998755;28;20488;-68
2021/08/06 10:34:05;;;;;;;4.20;3.73;;;22.50;99.90;;;;;;4984565;28;20766;-68
2021/08/06 10:36:43;;;;;;;3.40;3.10;;;23.70;99.90;;;;;;4996873;28;20580;-66
2021/08/06 10:39:44;;;;;;;3.70;2.93;;;24.10;99.90;;;;;;4998889;28;20771;-66
2021/08/06 10:42:11;;;;;;;3.17;2.87;;;23.40;99.90;;;;;;4994936;28;20538;-65
2021/08/06 10:44:57;;;;;;;3.60;3.40;;;23.40;99.90;;;;;;4999354;28;20473;-65
2021/08/06 10:47:53;;;;;;;3.80;3.50;;;24.10;99.90;;;;;;4997295;28;20477;-65
2021/08/06 10:50:22;;;;;;;5.20;3.50;;;24.40;99.90;;;;;;4997857;28;20469;-64
2021/08/06 10:53:16;;;;;;;3.30;3.00;;;24.40;99.90;;;;;;4997205;28;20484;-63
2021/08/06 10:55:45;;;;;;;4.90;3.10;;;24.50;98.40;;;;;;4997715;28;20827;-63
2021/08/06 10:58:51;;;;;;;3.87;3.27;;;23.90;99.90;;;;;;4998115;28;20477;-62
2021/08/06 11:01:37;;;;;;;3.63;3.17;;;24.10;99.90;;;;;;4990928;28;20940;-63
2021/08/06 11:04:07;;;;;;;3.30;3.00;;;24.80;99.90;;;;;;4990601;28;20473;-63
2021/08/06 11:06:34;;;;;;;3.67;3.37;;;25.20;98.00;;;;;;4992032;28;20461;-63
2021/08/06 11:09:02;;;;;;;3.80;3.30;;;25.20;97.30;;;;;;4993189;28;20775;-62
2021/08/06 11:11:52;;;;;;;3.80;3.40;;;25.20;97.80;;;;;;4996082;28;20461;-62
2021/08/06 11:14:59;;;;;;;4.40;3.60;;;25.00;99.40;;;;;;4996140;28;20539;-62
2021/08/06 11:17:40;;;;;;;4.27;3.70;;;25.80;96.90;;;;;;4996997;28;20476;-61
2021/08/06 11:20:11;;;;;;;3.00;2.80;;;26.60;91.50;;;;;;4998315;28;20586;-62
2021/08/06 11:22:40;;;;;;;4.00;3.70;;;26.30;91.00;;;;;;4996224;28;20476;-63
2021/08/06 11:25:12;;;;;;;4.10;3.80;;;26.30;90.10;;;;;;4997860;28;20468;-64
2021/08/06 11:27:41;;;;;;;4.13;3.83;;;26.30;90.40;;;;;;4997396;28;20469;-63
2021/08/06 11:30:13;;;;;;;4.40;4.00;;;26.10;90.20;;;;;;4996721;28;20825;-63
2021/08/06 11:32:52;;;;;;;4.23;3.70;;;25.60;90.50;;;;;;4997395;28;20540;-63
2021/08/06 11:35:22;;;;;;;4.80;4.27;;;24.80;92.90;;;;;;4997442;28;20469;-63
2021/08/06 11:37:53;;;;;;;5.10;4.60;;;24.00;94.70;;;;;;4998315;28;20750;-63
2021/08/06 11:40:26;;;;;;;5.90;4.20;;;22.90;99.90;;;;;;4996338;28;20763;-66
2021/08/06 11:42:53;;;;;;;6.17;3.77;;;21.20;99.90;;;;;;4998501;28;20862;-73
2021/08/06 11:45:24;;;;;;;4.60;3.30;;;19.80;99.90;;;;;;4997321;28;20469;-72
2021/08/06 11:47:53;;;;;;;5.93;3.80;;;19.40;99.90;;;;;;4997968;28;20473;-74
2021/08/06 11:50:36;;;;;;;5.33;3.60;;;19.30;99.90;;;;;;4997768;28;20469;-77
2021/08/06 11:53:04;;;;;;;4.70;3.03;;;19.70;99.90;;;;;;4994273;28;20472;-73
2021/08/06 11:55:32;;;;;;;4.50;3.10;;;20.80;99.90;;;;;;4998092;28;20447;-73
2021/08/06 11:58:00;;;;;;;3.50;3.13;;;21.70;99.90;;;;;;4996933;28;20461;-71
2021/08/06 12:00:29;;;;;;;4.07;3.37;;;21.70;99.90;;;;;;4997895;28;20749;-72
2021/08/06 12:03:11;;;;;;;4.10;3.43;;;22.50;99.90;;;;;;4993053;28;20780;-70
2021/08/06 12:05:42;;;;;;;4.90;3.37;;;22.50;99.90;;;;;;4991026;28;20816;-69
2021/08/06 12:08:24;;;;;;;5.03;3.70;;;21.90;99.90;;;;;;4996672;28;20476;-69
2021/08/06 12:10:56;;;;;;;4.23;3.70;;;21.50;99.90;;;;;;4996953;28;20472;-68
2021/08/06 12:13:24;;;;;;;5.10;4.07;;;21.00;99.90;;;;;;4997360;28;20493;-68
2021/08/06 12:16:06;;;;;;;4.00;3.63;;;21.00;99.90;;;;;;4997048;28;20473;-68
2021/08/06 12:18:34;;;;;;;6.00;4.40;;;21.20;99.90;;;;;;4997503;28;20575;-67
2021/08/06 12:21:08;;;;;;;5.10;4.10;;;21.00;99.90;;;;;;4996616;28;20963;-67
2021/08/06 12:23:36;;;;;;;3.83;3.53;;;20.90;99.90;;;;;;4998090;28;20463;-66
2021/08/06 12:26:12;;;;;;;4.03;3.43;;;20.60;99.90;;;;;;4997395;28;20523;-66
2021/08/06 12:28:42;;;;;;;4.63;3.60;;;20.80;99.90;;;;;;4995674;28;20492;-67
2021/08/06 12:31:13;;;;;;;3.17;2.87;;;21.10;99.90;;;;;;4997165;28;20476;-67
2021/08/06 12:33:41;;;;;;;5.27;3.17;;;21.50;99.90;;;;;;4994659;28;20456;-66
2021/08/06 12:36:12;;;;;;;3.40;2.80;;;21.70;99.90;;;;;;5264664;23;20514;-66
2021/08/06 12:38:39;;;;;;;2.97;2.77;;;21.80;99.90;;;;;;4996747;28;20465;-67
2021/08/06 12:41:07;;;;;;;2.40;2.20;;;22.60;99.90;;;;;;4997496;28;20936;-66
2021/08/06 12:43:37;;;;;;;3.20;2.97;;;23.40;99.90;;;;;;4997375;28;20969;-64
2021/08/06 12:46:12;;;;;;;2.67;2.47;;;23.40;99.90;;;;;;4996723;28;20476;-64
2021/08/06 12:49:05;;;;;;;3.33;2.63;;;23.20;99.90;;;;;;4997185;28;20464;-64
2021/08/06 12:51:34;;;;;;;3.20;2.93;;;23.30;99.60;;;;;;4978195;28;20463;-65
2021/08/06 12:54:01;;;;;;;3.43;2.50;;;23.80;99.90;;;;;;4986243;28;20472;-64
2021/08/06 12:56:28;;;;;;;2.90;2.70;;;23.90;95.00;;;;;;4996374;28;20476;-63
2021/08/06 12:59:17;;;;;;;2.80;2.60;;;23.80;94.70;;;;;;4997484;28;20767;-63
2021/08/06 13:01:45;;;;;;;2.90;2.70;;;23.60;93.00;;;;;;5000196;28;20496;-62
2021/08/06 13:04:12;;;;;;;3.27;2.60;;;23.70;94.40;;;;;;4990077;28;20953;-62
2021/08/06 13:06:52;;;;;;;3.47;2.97;;;23.70;94.70;;;;;;4995535;28;20469;-62
2021/08/06 13:09:39;;;;;;;2.80;2.60;;;24.00;94.30;;;;;;4997748;28;20465;-62
2021/08/06 13:14:52;;;;;;;3.77;2.53;;;23.90;91.40;;;;;;4996654;28;20465;-63
2021/08/06 13:17:21;;;;;;;3.70;2.63;;;24.10;92.30;;;;;;5000806;28;20481;-62
2021/08/06 13:19:52;;;;;;;3.10;2.80;;;23.90;91.60;;;;;;4998845;28;20499;-62
2021/08/06 13:22:20;;;;;;;2.73;2.50;;;23.70;92.20;;;;;;4995507;28;20497;-61
2021/08/06 13:24:50;;;;;;;3.00;2.73;;;23.70;92.10;;;;;;4999008;28;20472;-61
2021/08/06 13:27:17;;;;;;;2.77;2.57;;;23.30;93.70;;;;;;4999810;28;20464;-63
2021/08/06 13:29:44;;;;;;;3.37;3.07;;;22.70;97.10;;;;;;4999343;28;20893;-62
2021/08/06 13:32:11;;;;;;;5.10;3.13;;;23.00;96.10;;;;;;4995920;28;20457;-61
2021/08/06 13:34:38;;;;;;;3.60;3.30;;;22.90;96.30;;;;;;4994884;28;20473;-62
2021/08/06 13:37:06;;;;;;;3.90;3.60;;;22.60;95.00;;;;;;4995262;28;20815;-62
2021/08/06 13:39:37;;;;;;;3.67;3.20;;;22.80;97.00;;;;;;4985859;28;20530;-62
2021/08/06 13:42:07;;;;;;;3.77;3.40;;;23.00;95.10;;;;;;4978680;28;20524;-62
2021/08/06 13:44:38;;;;;;;3.67;3.37;;;22.80;95.50;;;;;;4979069;28;20532;-62
2021/08/06 13:47:06;;;;;;;3.20;2.70;;;22.30;96.20;;;;;;4980352;28;20747;-62
2021/08/06 13:49:33;;;;;;;3.33;3.03;;;22.40;96.90;;;;;;4980388;28;20501;-62
2021/08/06 13:52:01;;;;;;;6.53;3.40;;;22.50;97.50;;;;;;4980209;28;20465;-63
2021/08/06 13:54:28;;;;;;;3.30;3.00;;;22.80;96.70;;;;;;4979739;28;20519;-63
2021/08/06 13:56:58;;;;;;;3.67;3.37;;;23.40;96.40;;;;;;4980260;28;20465;-62
2021/08/06 13:59:25;;;;;;;4.63;3.30;;;23.80;94.50;;;;;;4979902;28;20470;-62
2021/08/06 14:01:53;;;;;;;3.30;3.00;;;23.50;93.50;;;;;;4980474;28;20519;-62
2021/08/06 14:04:23;;;;;;;3.70;3.13;;;23.40;93.00;;;;;;4979194;28;20474;-63
2021/08/06 14:06:50;;;;;;;3.23;2.57;;;23.40;94.30;;;;;;4980184;28;20552;-63
2021/08/06 14:09:18;;;;;;;4.23;3.13;;;23.60;92.80;;;;;;4980192;28;20818;-62
2021/08/06 14:11:45;;;;;;;2.80;2.60;;;23.60;92.70;;;;;;4979917;28;20489;-62
2021/08/06 14:14:13;;;;;;;4.10;3.80;;;23.70;92.50;;;;;;4979545;28;20779;-62
2021/08/06 14:16:43;;;;;;;4.40;3.30;;;23.50;92.10;;;;;;4980086;28;20466;-62
2021/08/06 14:19:11;;;;;;;3.20;2.90;;;23.60;92.20;;;;;;4980462;28;20472;-62
2021/08/06 14:21:38;;;;;;;4.13;3.53;;;23.40;92.00;;;;;;4980128;28;20536;-62
2021/08/06 14:24:05;;;;;;;5.63;3.50;;;23.20;91.60;;;;;;4980224;28;20921;-62
2021/08/06 14:26:35;;;;;;;4.10;2.93;;;23.10;91.90;;;;;;4979891;28;20477;-62
2021/08/06 14:29:02;;;;;;;3.83;3.43;;;23.40;90.60;;;;;;4979973;28;20469;-63
2021/08/06 14:31:31;;;;;;;4.30;3.83;;;24.10;90.40;;;;;;4979737;28;20750;-59
2021/08/06 14:33:58;;;;;;;3.33;3.00;;;24.30;86.20;;;;;;4980024;28;20497;-62
2021/08/06 14:36:25;;;;;;;3.40;2.67;;;24.60;85.20;;;;;;4979685;28;20810;-62
2021/08/06 14:38:53;;;;;;;3.80;3.10;;;25.00;83.30;;;;;;4979641;28;20898;-62
2021/08/06 14:41:20;;;;;;;3.57;3.37;;;24.90;81.00;;;;;;4979640;28;20493;-62
2021/08/06 14:43:47;;;;;;;8.00;3.40;;;24.70;79.80;;;;;;4979890;28;20469;-62
2021/08/06 14:46:14;;;;;;;3.50;2.60;;;24.30;81.20;;;;;;4979159;28;20473;-62
2021/08/06 14:48:43;;;;;;;3.10;2.90;;;23.80;81.90;;;;;;4979683;28;20469;-61
2021/08/06 14:51:10;;;;;;;3.13;2.40;;;23.30;83.80;;;;;;4979231;28;20465;-61
2021/08/06 14:53:40;;;;;;;2.97;2.70;;;23.40;87.70;;;;;;4979854;28;20755;-62
2021/08/06 14:56:08;;;;;;;3.87;2.90;;;23.40;85.20;;;;;;4978989;28;20472;-62
2021/08/06 14:58:35;;;;;;;3.27;2.93;;;23.30;85.00;;;;;;4979777;28;20785;-61
2021/08/06 15:01:04;;;;;;;2.83;2.63;;;23.20;84.20;;;;;;4979510;28;20524;-62
2021/08/06 15:03:31;;;;;;;3.27;2.50;;;23.20;84.00;;;;;;4978989;28;20528;-61
2021/08/06 15:06:00;;;;;;;3.10;2.70;;;23.30;84.40;;;;;;4994697;28;20459;-61
2021/08/06 15:08:27;;;;;;;3.00;2.70;;;23.40;82.70;;;;;;4998123;28;20460;-61
2021/08/06 15:10:57;;;;;;;2.80;2.60;;;23.20;82.40;;;;;;4998729;28;20465;-61
2021/08/06 15:13:24;;;;;;;2.87;2.67;;;23.00;83.50;;;;;;4990316;28;20468;-61
2021/08/06 15:15:51;;;;;;;4.40;2.93;;;22.80;84.00;;;;;;4979351;28;20440;-61
2021/08/06 15:18:18;;;;;;;2.87;2.57;;;22.90;84.50;;;;;;4979018;28;20808;-61
2021/08/06 15:20:46;;;;;;;3.37;3.07;;;22.80;84.90;;;;;;4979021;28;20879;-59
2021/08/06 15:23:17;;;;;;;2.70;2.50;;;22.70;85.20;;;;;;4996230;28;20493;-61
2021/08/06 15:25:44;;;;;;;3.37;3.10;;;22.50;85.40;;;;;;4998574;28;20469;-61
2021/08/06 15:28:17;;;;;;;3.73;3.33;;;22.50;87.60;;;;;;4998210;28;20475;-61
2021/08/06 15:30:44;;;;;;;3.30;2.70;;;22.50;89.90;;;;;;4998280;28;20475;-61
2021/08/06 15:33:11;;;;;;;2.80;2.60;;;22.70;90.50;;;;;;4997478;28;20460;-60
2021/08/06 15:35:38;;;;;;;2.77;2.57;;;22.80;89.80;;;;;;4997923;28;20874;-61
2021/08/06 15:38:08;;;;;;;3.50;3.00;;;23.20;86.10;;;;;;4996800;28;20785;-61
2021/08/06 15:40:36;;;;;;;2.70;2.50;;;23.40;86.80;;;;;;4978482;28;20793;-61
2021/08/06 15:43:03;;;;;;;2.90;2.70;;;23.60;85.20;;;;;;4976620;28;20502;-61
2021/08/06 15:45:31;;;;;;;3.07;2.87;;;23.60;84.00;;;;;;4977841;28;20462;-60
2021/08/06 15:47:58;;;;;;;2.83;2.63;;;23.50;84.90;;;;;;4978357;28;20564;-61
2021/08/06 15:50:25;;;;;;;2.60;2.40;;;23.90;83.80;;;;;;4987638;28;20477;-61
2021/08/06 15:52:52;;;;;;;4.77;3.27;;;24.10;81.00;;;;;;4997026;28;20467;-59
2021/08/06 15:55:20;;;;;;;5.00;2.60;;;23.70;81.90;;;;;;4997455;28;20471;-61
2021/08/06 15:57:49;;;;;;;2.50;2.30;;;23.40;82.40;;;;;;4998097;28;20444;-61
2021/08/06 16:00:24;;;;;;;3.60;3.07;;;23.00;82.50;;;;;;4998168;28;20895;-58
2021/08/06 16:02:51;;;;;;;3.27;2.97;;;23.00;85.80;;;;;;4993520;28;20496;-61
2021/08/06 16:05:19;;;;;;;3.60;2.40;;;23.10;84.80;;;;;;4984814;28;20507;-60
2021/08/06 16:07:49;;;;;;;3.50;2.20;;;23.30;86.20;;;;;;4983453;28;20461;-59
2021/08/06 16:10:20;;;;;;;2.70;2.50;;;23.00;84.30;;;;;;4994990;28;20461;-60
2021/08/06 16:12:51;;;;;;;3.10;2.80;;;22.50;86.50;;;;;;4995008;28;20450;-60
2021/08/06 16:15:21;;;;;;;2.93;2.73;;;22.30;87.80;;;;;;4978340;28;20485;-58
2021/08/06 16:17:48;;;;;;;3.10;2.63;;;22.10;90.00;;;;;;4978739;28;20462;-59
2021/08/06 16:20:15;;;;;;;2.97;2.73;;;22.00;89.80;;;;;;4978182;28;20466;-60
2021/08/06 16:22:45;;;;;;;2.80;2.60;;;21.90;90.60;;;;;;4991688;28;20499;-61
2021/08/06 16:25:12;;;;;;;2.93;2.70;;;22.00;91.00;;;;;;4996815;28;20780;-60
2021/08/06 16:27:40;;;;;;;4.03;2.20;;;22.10;90.20;;;;;;4987265;28;20829;-59
2021/08/06 16:30:10;;;;;;;12.53;2.53;;;22.00;89.90;;;;;;4993016;28;20837;-61
2021/08/06 17:10:56;;;;;;;10.23;2.73;;;21.50;93.60;;;;;;4859514;22;20500;-60
2021/08/06 17:13:23;;;;;;;2.70;2.50;;;21.50;92.60;;;;;;4980842;28;20435;-60
2021/08/06 17:15:51;;;;;;;2.20;2.00;;;21.40;93.20;;;;;;4980673;28;20472;-60
2021/08/06 17:18:18;;;;;;;2.90;2.60;;;21.30;93.00;;;;;;4979609;28;20466;-60
2021/08/06 17:20:46;;;;;;;2.73;2.30;;;21.10;93.30;;;;;;4979283;28;20466;-60
2021/08/06 17:23:13;;;;;;;3.00;2.43;;;21.00;94.00;;;;;;4980567;28;20835;-60
2021/08/06 17:25:40;;;;;;;2.77;2.53;;;21.00;94.20;;;;;;4981235;28;20782;-60
2021/08/06 17:28:09;;;;;;;4.23;2.50;;;20.90;94.70;;;;;;4980697;28;20475;-60
2021/08/06 17:30:38;;;;;;;2.63;2.43;;;20.90;94.80;;;;;;4981037;28;20804;-60
2021/08/06 17:33:05;;;;;;;3.03;2.00;;;20.80;95.30;;;;;;4979934;28;20889;-59
2021/08/06 17:35:32;;;;;;;3.03;2.73;;;20.80;95.60;;;;;;4978128;28;20462;-60
2021/08/06 17:37:59;;;;;;;2.50;2.10;;;20.80;95.40;;;;;;4979402;28;20469;-60
2021/08/06 17:40:32;;;;;;;2.47;2.30;;;20.70;95.30;;;;;;4979510;28;20458;-60
2021/08/06 17:43:00;;;;;;;2.63;2.40;;;20.60;95.10;;;;;;4979669;28;20552;-59
2021/08/06 17:45:28;;;;;;;2.63;2.40;;;20.60;95.50;;;;;;4979233;28;20811;-59
2021/08/06 17:48:00;;;;;;;4.53;2.70;;;20.60;96.40;;;;;;4980251;28;20534;-59
2021/08/06 17:50:27;;;;;;;2.63;2.30;;;20.50;96.90;;;;;;4980221;28;20476;-56
2021/08/06 17:52:56;;;;;;;3.10;2.90;;;20.40;97.50;;;;;;4979148;28;20457;-59
2021/08/06 17:55:26;;;;;;;3.87;2.90;;;20.40;97.70;;;;;;4975450;28;20565;-57
2021/08/06 17:57:53;;;;;;;2.80;2.60;;;20.30;98.00;;;;;;4978883;28;20462;-60
2021/08/06 18:00:20;;;;;;;3.30;2.63;;;20.30;98.30;;;;;;4979840;28;20470;-60
2021/08/06 18:02:54;;;;;;;2.67;2.47;;;20.40;98.50;;;;;;4976255;28;20708;-59